createdAt,value
2022-11-24T00:01:18.956Z,5.06
2022-11-24T00:03:51.982Z,5.18
2022-11-24T00:06:18.702Z,5.05
2022-11-24T00:08:46.622Z,5.03
2022-11-24T00:11:16.086Z,4.88
2022-11-24T00:13:46.360Z,4.81
2022-11-24T00:16:27.747Z,4.79
2022-11-24T00:18:57.102Z,4.72
2022-11-24T00:21:25.503Z,4.81
2022-11-24T00:23:53.020Z,4.79
2022-11-24T00:26:22.762Z,4.76
2022-11-24T00:28:51.783Z,4.83
2022-11-24T00:31:24.872Z,4.80
2022-11-24T00:33:53.975Z,4.71
2022-11-24T00:36:23.421Z,4.74
2022-11-24T00:38:58.636Z,4.67
2022-11-24T00:41:26.431Z,4.67
2022-11-24T00:43:54.051Z,4.71
2022-11-24T00:46:21.480Z,4.69
2022-11-24T00:48:48.629Z,4.64
2022-11-24T00:51:17.820Z,4.75
2022-11-24T00:53:47.479Z,4.76
2022-11-24T00:56:14.765Z,4.75
2022-11-24T00:58:41.798Z,4.74
2022-11-24T01:01:11.947Z,4.74
2022-11-24T01:03:39.900Z,4.73
2022-11-24T01:06:09.037Z,4.80
2022-11-24T01:08:37.972Z,4.81
2022-11-24T01:11:19.459Z,4.78
2022-11-24T01:13:48.955Z,4.77
2022-11-24T01:16:21.887Z,4.82
2022-11-24T01:18:49.604Z,4.80
2022-11-24T01:21:17.373Z,4.68
2022-11-24T01:23:44.600Z,4.66
2022-11-24T01:26:14.646Z,4.61
2022-11-24T01:28:46.566Z,4.69
2022-11-24T01:31:16.111Z,4.75
2022-11-24T01:33:43.281Z,4.76
2022-11-24T01:36:10.415Z,4.77
2022-11-24T01:38:37.457Z,4.76
2022-11-24T01:41:08.472Z,4.79
2022-11-24T01:43:35.935Z,4.73
2022-11-24T01:46:17.229Z,4.64
2022-11-24T01:48:50.575Z,4.71
2022-11-24T01:51:25.292Z,4.63
2022-11-24T01:53:57.924Z,4.66
2022-11-24T01:56:26.461Z,4.70
2022-11-24T01:58:59.078Z,4.68
2022-11-24T02:01:26.173Z,4.66
2022-11-24T02:03:53.755Z,4.70
2022-11-24T02:06:25.146Z,4.67
2022-11-24T02:09:01.069Z,4.67
2022-11-24T02:11:33.564Z,4.67
2022-11-24T02:14:01.078Z,4.64
2022-11-24T02:16:29.007Z,4.63
2022-11-24T02:18:56.398Z,4.67
2022-11-24T02:21:23.349Z,4.63
2022-11-24T02:24:05.211Z,4.57
2022-11-24T02:26:37.640Z,4.69
2022-11-24T02:29:04.702Z,4.73
2022-11-24T02:31:31.664Z,4.66
2022-11-24T02:33:58.698Z,4.59
2022-11-24T02:36:25.448Z,4.60
2022-11-24T02:38:52.463Z,4.75
2022-11-24T02:41:21.825Z,4.66
2022-11-24T02:43:54.923Z,4.64
2022-11-24T02:46:21.830Z,4.49
2022-11-24T02:48:48.961Z,4.55
2022-11-24T02:51:15.833Z,4.52
2022-11-24T02:53:42.869Z,4.51
2022-11-24T02:56:09.672Z,4.52
2022-11-24T02:58:36.958Z,4.59
2022-11-24T03:01:03.930Z,4.40
2022-11-24T03:03:31.433Z,4.34
2022-11-24T03:05:58.190Z,4.32
2022-11-24T03:08:25.194Z,4.34
2022-11-24T03:10:51.942Z,4.22
2022-11-24T03:13:18.934Z,4.18
2022-11-24T03:15:45.764Z,4.18
2022-11-24T03:18:12.830Z,4.24
2022-11-24T03:20:39.542Z,4.29
2022-11-24T03:23:06.584Z,4.15
2022-11-24T03:25:33.361Z,4.20
2022-11-24T03:28:00.437Z,4.17
2022-11-24T03:30:27.529Z,4.14
2022-11-24T03:32:54.585Z,4.21
2022-11-24T03:35:22.091Z,4.18
2022-11-24T03:37:49.316Z,4.16
2022-11-24T03:40:17.947Z,4.10
2022-11-24T03:42:45.030Z,4.08
2022-11-24T03:47:58.777Z,4.12
2022-11-24T03:50:25.494Z,4.11
2022-11-24T03:52:52.496Z,4.06
2022-11-24T03:55:19.223Z,4.01
2022-11-24T03:57:46.278Z,4.03
2022-11-24T04:00:13.365Z,4.05
2022-11-24T04:02:40.450Z,4.00
2022-11-24T04:05:07.634Z,4.04
2022-11-24T04:07:34.735Z,4.09
2022-11-24T04:10:01.633Z,4.10
2022-11-24T04:12:44.239Z,3.98
2022-11-24T04:15:12.715Z,3.91
2022-11-24T04:17:40.006Z,3.79
2022-11-24T04:20:07.742Z,3.79
2022-11-24T04:22:35.742Z,3.83
2022-11-24T04:25:03.110Z,3.87
2022-11-24T04:27:30.476Z,3.81
2022-11-24T04:29:57.252Z,3.83
2022-11-24T04:32:24.485Z,3.81
2022-11-24T04:34:51.222Z,3.77
2022-11-24T04:37:18.233Z,3.81
2022-11-24T04:39:46.294Z,3.77
2022-11-24T04:42:13.499Z,3.65
2022-11-24T04:44:40.313Z,3.61
2022-11-24T04:47:07.411Z,3.68
2022-11-24T04:49:34.147Z,3.75
2022-11-24T04:52:01.148Z,3.74
2022-11-24T04:54:27.889Z,3.71
2022-11-24T04:56:55.086Z,3.61
2022-11-24T04:59:21.823Z,3.56
2022-11-24T05:01:48.881Z,3.64
2022-11-24T05:04:16.219Z,3.60
2022-11-24T05:06:43.318Z,3.50
2022-11-24T05:09:14.573Z,3.46
2022-11-24T05:11:42.042Z,3.44
2022-11-24T05:14:08.799Z,3.39
2022-11-24T05:16:37.268Z,3.46
2022-11-24T05:19:04.116Z,3.45
2022-11-24T05:21:31.183Z,3.42
2022-11-24T05:23:58.073Z,3.42
2022-11-24T05:26:26.080Z,3.51
2022-11-24T05:28:52.959Z,3.54
2022-11-24T05:31:20.102Z,3.44
2022-11-24T05:33:47.012Z,3.51
2022-11-24T05:36:34.089Z,3.44
2022-11-24T05:39:01.230Z,3.47
2022-11-24T05:41:28.428Z,3.54
2022-11-24T05:43:55.256Z,3.59
2022-11-24T05:46:22.393Z,3.56
2022-11-24T05:48:49.502Z,3.60
2022-11-24T05:51:16.881Z,3.67
2022-11-24T05:53:43.585Z,3.73
2022-11-24T05:56:10.655Z,3.78
2022-11-24T05:58:37.441Z,3.75
2022-11-24T06:01:07.622Z,3.74
2022-11-24T06:03:34.393Z,3.80
2022-11-24T06:06:01.784Z,3.85
2022-11-24T06:08:31.255Z,3.85
2022-11-24T06:11:17.608Z,3.85
2022-11-24T06:13:45.894Z,3.89
2022-11-24T06:16:13.324Z,3.88
2022-11-24T06:18:40.346Z,3.88
2022-11-24T06:21:12.055Z,3.87
2022-11-24T06:23:39.689Z,3.87
2022-11-24T06:26:07.063Z,3.93
2022-11-24T06:28:33.853Z,3.94
2022-11-24T06:31:02.418Z,3.92
2022-11-24T06:33:33.722Z,3.96
2022-11-24T06:36:07.157Z,4.04
2022-11-24T06:38:35.572Z,4.07
2022-11-24T06:41:06.269Z,4.08
2022-11-24T06:43:34.333Z,4.04
2022-11-24T06:46:02.277Z,4.11
2022-11-24T06:48:30.102Z,4.13
2022-11-24T06:51:01.727Z,4.13
2022-11-24T06:53:37.678Z,4.17
2022-11-24T06:56:12.086Z,4.22
2022-11-24T06:58:43.014Z,4.25
2022-11-24T07:01:14.073Z,4.25
2022-11-24T07:03:40.837Z,4.31
2022-11-24T07:06:07.912Z,4.26
2022-11-24T07:08:34.715Z,4.21
2022-11-24T07:11:09.716Z,4.31
2022-11-24T07:13:36.899Z,4.36
2022-11-24T07:16:19.480Z,4.33
2022-11-24T07:18:47.890Z,4.13
2022-11-24T07:21:15.449Z,4.17
2022-11-24T07:23:42.626Z,4.20
2022-11-24T07:26:10.527Z,4.16
2022-11-24T07:28:37.824Z,4.19
2022-11-24T07:31:10.447Z,4.23
2022-11-24T07:33:37.558Z,4.64
2022-11-24T07:36:06.554Z,4.66
2022-11-24T07:38:35.266Z,4.81
2022-11-24T07:41:04.521Z,4.55
2022-11-24T07:43:32.487Z,4.51
2022-11-24T07:46:00.232Z,4.51
2022-11-24T07:48:27.448Z,4.58
2022-11-24T07:50:56.300Z,4.59
2022-11-24T07:53:23.230Z,4.59
2022-11-24T07:55:55.045Z,4.57
2022-11-24T07:58:22.765Z,4.64
2022-11-24T08:00:49.952Z,4.54
2022-11-24T08:03:16.821Z,4.57
2022-11-24T08:06:07.660Z,4.54
2022-11-24T08:08:34.386Z,4.50
2022-11-24T08:11:07.131Z,4.57
2022-11-24T08:13:35.107Z,4.53
2022-11-24T08:16:10.731Z,4.59
2022-11-24T08:18:38.681Z,4.72
2022-11-24T08:21:06.968Z,4.65
2022-11-24T08:23:34.222Z,4.71
2022-11-24T08:26:10.717Z,4.66
2022-11-24T08:28:38.292Z,4.66
2022-11-24T08:31:09.223Z,4.57
2022-11-24T08:33:36.545Z,4.57
2022-11-24T08:36:09.475Z,4.59
2022-11-24T08:38:36.748Z,4.65
2022-11-24T08:41:09.782Z,4.70
2022-11-24T08:43:37.018Z,4.83
2022-11-24T08:46:10.415Z,4.72
2022-11-24T08:48:37.568Z,4.74
2022-11-24T08:51:13.307Z,4.66
2022-11-24T08:53:40.669Z,4.75
2022-11-24T08:56:09.079Z,4.65
2022-11-24T08:58:36.864Z,4.67
2022-11-24T09:01:12.139Z,4.78
2022-11-24T09:03:42.366Z,4.90
2022-11-24T09:06:13.949Z,4.89
2022-11-24T09:08:40.842Z,4.93
2022-11-24T09:11:11.017Z,4.88
2022-11-24T09:13:38.714Z,5.05
2022-11-24T09:16:08.597Z,4.94
2022-11-24T09:18:35.394Z,4.91
2022-11-24T09:21:11.577Z,4.86
2022-11-24T09:23:39.194Z,5.01
2022-11-24T09:26:11.945Z,5.10
2022-11-24T09:28:39.046Z,4.97
2022-11-24T09:31:08.726Z,5.11
2022-11-24T09:33:36.744Z,5.10
2022-11-24T09:36:04.575Z,5.20
2022-11-24T09:38:31.862Z,5.38
2022-11-24T09:41:23.221Z,5.52
2022-11-24T09:43:55.677Z,5.58
2022-11-24T09:46:59.911Z,5.72
2022-11-24T09:49:47.309Z,5.81
2022-11-24T09:52:26.791Z,5.70
2022-11-24T09:55:00.891Z,5.82
2022-11-24T09:57:36.950Z,5.99
2022-11-24T10:00:12.416Z,6.07
2022-11-24T10:02:39.999Z,5.89
2022-11-24T10:05:07.332Z,5.86
2022-11-24T10:08:02.636Z,5.91
2022-11-24T10:10:42.516Z,5.99
2022-11-24T10:13:35.249Z,5.88
2022-11-24T10:16:21.915Z,5.86
2022-11-24T10:19:22.108Z,5.81
2022-11-24T10:22:01.186Z,5.77
2022-11-24T10:25:08.367Z,5.64
2022-11-24T10:27:44.145Z,5.53
2022-11-24T10:30:21.644Z,5.41
2022-11-24T10:32:53.041Z,5.41
2022-11-24T10:35:24.448Z,5.48
2022-11-24T10:38:00.626Z,5.53
2022-11-24T10:40:56.416Z,5.53
2022-11-24T10:43:27.071Z,5.54
2022-11-24T10:45:59.715Z,5.54
2022-11-24T10:48:31.145Z,5.65
2022-11-24T10:51:17.212Z,5.61
2022-11-24T10:53:46.108Z,5.53
2022-11-24T10:56:13.226Z,5.65
2022-11-24T10:58:40.108Z,5.70
2022-11-24T11:01:12.902Z,5.68
2022-11-24T11:03:50.741Z,5.80
2022-11-24T11:06:28.711Z,5.88
2022-11-24T11:09:24.626Z,5.77
2022-11-24T11:11:53.794Z,5.95
2022-11-24T11:14:32.983Z,6.02
2022-11-24T11:17:00.125Z,6.07
2022-11-24T11:19:54.157Z,6.22
2022-11-24T11:22:31.140Z,6.30
2022-11-24T11:25:04.030Z,6.21
2022-11-24T11:27:31.090Z,6.31
2022-11-24T11:36:16.254Z,6.40
2022-11-24T11:38:45.048Z,6.51
2022-11-24T11:41:21.694Z,6.50
2022-11-24T11:43:56.453Z,6.64
2022-11-24T11:46:28.934Z,6.64
2022-11-24T11:48:56.050Z,6.75
2022-11-24T11:51:57.895Z,6.55
2022-11-24T11:54:57.187Z,6.54
2022-11-24T11:57:44.145Z,6.72
2022-11-24T12:00:24.340Z,6.75
2022-11-24T12:03:03.703Z,6.82
2022-11-24T12:05:33.911Z,6.90
2022-11-24T12:08:25.964Z,6.91
2022-11-24T12:11:22.051Z,7.13
2022-11-24T12:13:48.758Z,7.11
2022-11-24T12:16:25.148Z,7.25
2022-11-24T12:19:18.564Z,7.33
2022-11-24T12:22:02.249Z,7.50
2022-11-24T12:24:55.199Z,7.46
2022-11-24T12:27:32.452Z,7.57
2022-11-24T12:30:06.001Z,7.58
2022-11-24T12:32:41.880Z,7.54
2022-11-24T12:35:30.157Z,7.43
2022-11-24T12:38:21.990Z,7.24
2022-11-24T12:41:43.258Z,7.22
2022-11-24T12:44:48.848Z,6.98
2022-11-24T12:47:22.106Z,6.82
2022-11-24T12:50:07.309Z,6.87
2022-11-24T12:52:39.856Z,6.80
2022-11-24T12:55:16.747Z,6.78
2022-11-24T12:57:52.502Z,6.72
2022-11-24T13:00:29.404Z,6.54
2022-11-24T13:03:17.788Z,6.49
2022-11-24T13:06:03.136Z,6.54
2022-11-24T13:08:31.147Z,6.66
2022-11-24T13:11:21.185Z,6.70
2022-11-24T13:14:05.679Z,6.77
2022-11-24T13:16:37.088Z,6.78
2022-11-24T13:19:33.727Z,6.73
2022-11-24T13:22:06.592Z,6.71
2022-11-24T13:24:39.279Z,6.74
2022-11-24T13:27:15.913Z,6.82
2022-11-24T13:29:47.023Z,6.78
2022-11-24T13:32:14.637Z,6.83
2022-11-24T13:34:42.765Z,6.90
2022-11-24T13:37:40.096Z,6.76
2022-11-24T13:40:13.399Z,6.89
2022-11-24T13:43:01.248Z,6.93
2022-11-24T13:45:41.058Z,6.86
2022-11-24T13:48:20.976Z,6.85
2022-11-24T13:50:51.448Z,6.75
2022-11-24T13:53:40.195Z,6.82
2022-11-24T13:56:12.990Z,6.82
2022-11-24T13:58:40.026Z,6.80
2022-11-24T14:01:24.933Z,6.81
2022-11-24T14:07:00.094Z,6.77
2022-11-24T14:09:32.457Z,6.73
2022-11-24T14:12:01.728Z,6.77
2022-11-24T14:14:29.076Z,6.79
2022-11-24T14:17:14.213Z,6.82
2022-11-24T14:19:42.789Z,6.69
2022-11-24T14:22:16.948Z,6.76
2022-11-24T14:24:56.502Z,6.67
2022-11-24T14:27:32.522Z,6.67
2022-11-24T14:30:20.856Z,6.58
2022-11-24T14:33:02.101Z,6.60
2022-11-24T14:35:31.922Z,6.55
2022-11-24T14:38:01.730Z,6.54
2022-11-24T14:40:42.373Z,6.50
2022-11-24T14:43:24.750Z,6.50
2022-11-24T14:46:09.349Z,6.54
2022-11-24T14:48:38.723Z,6.43
2022-11-24T14:51:11.325Z,6.42
2022-11-24T14:53:43.176Z,6.38
2022-11-24T14:56:35.422Z,6.39
2022-11-24T14:59:03.053Z,6.39
2022-11-24T15:01:34.029Z,6.31
2022-11-24T15:04:38.904Z,6.26
2022-11-24T15:07:20.525Z,6.19
2022-11-24T15:09:47.281Z,6.19
2022-11-24T15:12:48.115Z,6.18
2022-11-24T15:15:15.079Z,6.17
2022-11-24T15:17:52.258Z,6.17
2022-11-24T15:20:44.547Z,6.13
2022-11-24T15:23:20.825Z,6.10
2022-11-24T15:25:48.276Z,6.07
2022-11-24T15:28:15.497Z,6.10
2022-11-24T15:30:42.425Z,6.08
2022-11-24T15:33:17.632Z,6.12
2022-11-24T15:35:45.480Z,6.03
2022-11-24T15:38:13.118Z,6.08
2022-11-24T15:40:42.122Z,6.03
2022-11-24T15:43:19.590Z,5.90
2022-11-24T15:45:46.539Z,5.95
2022-11-24T15:48:17.992Z,5.88
2022-11-24T15:50:47.161Z,5.94
2022-11-24T15:53:23.293Z,5.86
2022-11-24T15:55:50.593Z,5.83
2022-11-24T15:58:17.890Z,5.77
2022-11-24T16:00:45.755Z,5.76
2022-11-24T16:03:45.055Z,5.82
2022-11-24T16:05:59.876Z,5.72
2022-11-24T16:08:26.988Z,5.65
2022-11-24T16:10:53.820Z,5.64
2022-11-24T16:13:20.843Z,5.62
2022-11-24T16:15:47.639Z,5.65
2022-11-24T16:18:14.830Z,5.58
2022-11-24T16:20:41.614Z,5.58
2022-11-24T16:23:11.210Z,5.48
2022-11-24T16:25:38.169Z,5.47
2022-11-24T16:28:05.273Z,5.44
2022-11-24T16:30:32.098Z,5.56
2022-11-24T16:32:59.143Z,5.52
2022-11-24T16:35:25.952Z,5.44
2022-11-24T16:37:53.113Z,5.40
2022-11-24T16:40:20.151Z,5.38
2022-11-24T16:42:47.243Z,5.36
2022-11-24T16:45:14.122Z,5.39
2022-11-24T16:47:42.145Z,5.32
2022-11-24T16:50:10.844Z,5.34
2022-11-24T16:52:38.764Z,5.32
2022-11-24T16:55:06.669Z,5.29
2022-11-24T16:57:33.998Z,5.21
2022-11-24T17:00:00.920Z,5.35
2022-11-24T17:02:28.247Z,5.30
2022-11-24T17:04:55.255Z,5.27
2022-11-24T17:07:22.491Z,5.20
2022-11-24T17:09:49.422Z,5.35
2022-11-24T17:12:16.411Z,5.16
2022-11-24T17:14:52.651Z,5.18
2022-11-24T17:17:30.312Z,5.08
2022-11-24T17:19:57.084Z,5.06
2022-11-24T17:22:24.198Z,5.05
2022-11-24T17:24:51.007Z,5.09
2022-11-24T17:27:18.059Z,5.03
2022-11-24T17:29:44.927Z,4.98
2022-11-24T17:32:12.295Z,5.00
2022-11-24T17:34:39.188Z,5.05
2022-11-24T17:37:06.230Z,4.94
2022-11-24T17:39:33.121Z,4.89
2022-11-24T17:42:00.329Z,4.80
2022-11-24T17:44:27.578Z,4.89
2022-11-24T17:46:54.649Z,4.87
2022-11-24T17:49:21.545Z,4.95
2022-11-24T17:51:50.574Z,4.87
2022-11-24T17:54:45.273Z,4.76
2022-11-24T17:57:05.269Z,4.81
2022-11-24T17:59:32.057Z,4.74
2022-11-24T18:01:59.233Z,4.74
2022-11-24T18:04:26.037Z,4.71
2022-11-24T18:06:53.117Z,4.61
2022-11-24T18:09:19.943Z,4.69
2022-11-24T18:11:47.856Z,4.53
2022-11-24T18:14:14.766Z,4.55
2022-11-24T18:16:42.005Z,4.47
2022-11-24T18:19:11.035Z,4.53
2022-11-24T18:21:40.354Z,4.43
2022-11-24T18:24:11.732Z,4.39
2022-11-24T18:26:40.233Z,4.44
2022-11-24T18:29:07.974Z,4.40
2022-11-24T18:31:36.198Z,4.43
2022-11-24T18:34:05.233Z,4.42
2022-11-24T18:36:33.142Z,4.47
2022-11-24T18:39:08.239Z,4.44
2022-11-24T18:41:36.093Z,4.40
2022-11-24T18:44:07.648Z,4.40
2022-11-24T18:46:34.981Z,4.38
2022-11-24T18:49:01.770Z,4.46
2022-11-24T18:51:29.157Z,4.41
2022-11-24T18:53:59.307Z,4.34
2022-11-24T18:56:26.666Z,4.29
2022-11-24T18:58:55.471Z,4.30
2022-11-24T19:01:26.081Z,4.35
2022-11-24T19:03:55.804Z,4.29
2022-11-24T19:06:34.547Z,4.28
2022-11-24T19:09:08.937Z,4.23
2022-11-24T19:11:38.938Z,4.15
2022-11-24T19:14:08.427Z,4.04
2022-11-24T19:16:36.051Z,4.04
2022-11-24T19:19:03.940Z,4.00
2022-11-24T19:21:33.635Z,4.03
2022-11-24T19:24:04.970Z,3.99
2022-11-24T19:26:35.218Z,3.98
2022-11-24T19:29:03.121Z,3.97
2022-11-24T19:31:34.443Z,3.91
2022-11-24T19:34:05.861Z,3.88
2022-11-24T19:36:32.995Z,3.90
2022-11-24T19:38:59.909Z,3.81
2022-11-24T19:41:29.314Z,3.85
2022-11-24T19:43:56.743Z,3.75
2022-11-24T19:46:29.318Z,3.71
2022-11-24T19:48:59.977Z,3.73
2022-11-24T19:51:32.340Z,3.72
2022-11-24T19:54:00.245Z,3.76
2022-11-24T19:56:30.447Z,3.78
2022-11-24T19:58:57.845Z,3.68
2022-11-24T20:01:30.487Z,3.71
2022-11-24T20:04:02.584Z,3.69
2022-11-24T20:06:32.783Z,3.66
2022-11-24T20:09:00.709Z,3.73
2022-11-24T20:11:28.583Z,3.99
2022-11-24T20:13:56.583Z,3.84
2022-11-24T20:16:26.753Z,3.90
2022-11-24T20:18:56.278Z,3.93
2022-11-24T20:21:31.538Z,4.11
2022-11-24T20:24:01.241Z,3.88
2022-11-24T20:26:31.866Z,3.89
2022-11-24T20:28:59.614Z,3.80
2022-11-24T20:31:32.233Z,3.81
2022-11-24T20:34:00.960Z,3.88
2022-11-24T20:36:30.293Z,3.77
2022-11-24T20:38:59.834Z,3.72
2022-11-24T20:41:29.265Z,3.76
2022-11-24T20:43:58.095Z,3.76
2022-11-24T20:46:30.494Z,3.71
2022-11-24T20:48:58.182Z,3.72
2022-11-24T20:51:30.966Z,3.82
2022-11-24T20:54:00.327Z,3.71
2022-11-24T20:56:30.028Z,3.72
2022-11-24T20:58:57.269Z,3.74
2022-11-24T21:01:28.140Z,3.77
2022-11-24T21:03:57.768Z,3.72
2022-11-24T21:06:26.294Z,3.68
2022-11-24T21:08:53.198Z,3.74
2022-11-24T21:11:21.879Z,3.67
2022-11-24T21:13:49.797Z,3.65
2022-11-24T21:16:46.157Z,3.67
2022-11-24T21:19:14.855Z,3.57
2022-11-24T21:21:42.932Z,3.57
2022-11-24T21:24:12.822Z,3.71
2022-11-24T21:26:41.169Z,3.71
2022-11-24T21:29:08.559Z,3.71
2022-11-24T21:31:37.426Z,3.73
2022-11-24T21:34:05.417Z,3.70
2022-11-24T21:36:34.803Z,3.67
2022-11-24T21:39:03.107Z,3.72
2022-11-24T21:41:33.204Z,3.66
2022-11-24T21:44:00.467Z,3.68
2022-11-24T21:46:29.245Z,3.65
2022-11-24T21:48:56.048Z,3.76
2022-11-24T21:51:23.108Z,3.72
2022-11-24T21:53:49.884Z,3.68
2022-11-24T21:56:19.446Z,3.68
2022-11-24T21:58:50.522Z,3.64
2022-11-24T22:01:19.392Z,3.54
2022-11-24T22:03:46.401Z,3.54
2022-11-24T22:06:14.199Z,3.48
2022-11-24T22:08:41.109Z,3.50
2022-11-24T22:11:23.315Z,3.43
2022-11-24T22:13:51.175Z,3.41
2022-11-24T22:16:23.052Z,3.40
2022-11-24T22:18:51.669Z,3.45
2022-11-24T22:21:24.327Z,3.46
2022-11-24T22:23:54.885Z,3.47
2022-11-24T22:26:23.919Z,3.43
2022-11-24T22:28:50.917Z,3.42
2022-11-24T22:31:23.941Z,3.54
2022-11-24T22:33:51.991Z,3.55
2022-11-24T22:36:23.121Z,3.59
2022-11-24T22:38:58.270Z,3.63
2022-11-24T22:41:25.831Z,3.62
2022-11-24T22:43:53.887Z,3.61
2022-11-24T22:46:26.674Z,3.65
2022-11-24T22:48:54.929Z,3.54
2022-11-24T22:51:26.458Z,3.57
2022-11-24T22:53:58.650Z,3.53
2022-11-24T22:56:27.921Z,3.52
2022-11-24T22:58:54.711Z,3.60
2022-11-24T23:01:24.316Z,3.64
2022-11-24T23:03:56.058Z,3.53
2022-11-24T23:06:25.436Z,3.50
2022-11-24T23:08:52.830Z,3.43
2022-11-24T23:11:27.397Z,3.49
2022-11-24T23:14:00.455Z,3.61
2022-11-24T23:16:28.979Z,3.47
2022-11-24T23:18:56.511Z,3.48
2022-11-24T23:21:35.109Z,3.52
2022-11-24T23:24:04.190Z,3.50
2022-11-24T23:26:37.137Z,3.51
2022-11-24T23:29:05.318Z,3.45
2022-11-24T23:31:33.229Z,3.60
2022-11-24T23:34:02.496Z,3.64
2022-11-24T23:36:30.367Z,3.55
2022-11-24T23:39:02.095Z,3.68
2022-11-24T23:41:30.364Z,3.56
2022-11-24T23:43:57.236Z,3.55
2022-11-24T23:46:25.847Z,3.50
2022-11-24T23:48:53.696Z,3.54
2022-11-24T23:51:24.116Z,3.44
2022-11-24T23:53:51.639Z,3.49
2022-11-24T23:56:21.563Z,3.49
2022-11-24T23:58:49.032Z,3.48
